Time;durP1;ratioP1;P1;durP2;ratioP2;P2;SDS_P1;SDS_P2;PMS_P1;PMS_P2;Temp;Humidity;BMP_temperature;BMP_pressure;BME280_temperature;BME280_humidity;BME280_pressure;Samples;Min_cycle;Max_cycle;Signal;HPM_P1;HPM_P2
2024/04/17 00:01:19;;;;;;;;;;;;;;;12.16;67.86;99545.74;107663;1254;97835;-63
2024/04/17 00:03:48;;;;;;;;;;;;;;;12.18;67.24;99543.00;107609;1252;111163;-63
2024/04/17 00:06:16;;;;;;;;;;;;;;;12.31;67.47;99545.09;107598;1253;108578;-62
2024/04/17 00:08:44;;;;;;;;;;;;;;;12.34;67.28;99554.67;107569;1254;107779;-62
2024/04/17 00:11:12;;;;;;;;;;;;;;;12.29;67.54;99556.65;107587;1253;97938;-62
2024/04/17 00:13:40;;;;;;;;;;;;;;;12.22;67.72;99554.92;107615;1255;97708;-62
2024/04/17 00:16:08;;;;;;;;;;;;;;;12.25;67.64;99554.55;107567;1255;111495;-61
2024/04/17 00:18:36;;;;;;;;;;;;;;;12.25;67.44;99553.69;107584;1254;107956;-62
2024/04/17 00:21:04;;;;;;;;;;;;;;;12.28;67.58;99563.11;107553;1253;108812;-62
2024/04/17 00:23:32;;;;;;;;;;;;;;;12.31;67.38;99565.75;107543;1251;97736;-60
2024/04/17 00:26:01;;;;;;;;;;;;;;;12.45;66.95;99564.11;107633;1254;97888;-62
2024/04/17 00:28:29;;;;;;;;;;;;;;;12.59;66.67;99564.52;107606;1256;111642;-62
2024/04/17 00:30:57;;;;;;;;;;;;;;;12.59;66.13;99560.71;107569;1253;108641;-62
2024/04/17 00:33:26;;;;;;;;;;;;;;;12.57;65.96;99560.66;107655;1254;108192;-62
2024/04/17 00:35:54;;;;;;;;;;;;;;;12.62;65.76;99553.45;107563;1255;97934;-63
2024/04/17 00:38:22;;;;;;;;;;;;;;;12.62;65.72;99549.45;107643;1254;97730;-63
2024/04/17 00:40:50;;;;;;;;;;;;;;;12.54;65.56;99551.25;107567;1254;112947;-62
2024/04/17 00:43:18;;;;;;;;;;;;;;;12.59;65.67;99547.17;107656;1255;107913;-62
2024/04/17 00:45:47;;;;;;;;;;;;;;;12.52;65.67;99546.61;107561;1254;107662;-63
2024/04/17 00:48:15;;;;;;;;;;;;;;;12.51;65.68;99548.33;107617;1253;97835;-63
2024/04/17 00:50:48;;;;;;;;;;;;;;;12.51;65.76;99554.34;107641;1253;97867;-63
2024/04/17 00:53:26;;;;;;;;;;;;;;;12.42;66.05;99553.52;107611;1252;111923;-63
2024/04/17 00:55:56;;;;;;;;;;;;;;;12.27;66.79;99550.59;107628;1252;108010;-63
2024/04/17 00:58:24;;;;;;;;;;;;;;;12.07;67.78;99542.33;107571;1252;107346;-63
2024/04/17 01:00:52;;;;;;;;;;;;;;;11.97;67.87;99536.42;107626;1253;97877;-63
2024/04/17 01:03:20;;;;;;;;;;;;;;;11.89;68.42;99534.17;107665;1253;97715;-62
2024/04/17 01:05:48;;;;;;;;;;;;;;;11.82;68.80;99542.38;107663;1254;111267;-62
2024/04/17 01:08:16;;;;;;;;;;;;;;;11.83;68.63;99553.17;107554;1254;108808;-62
2024/04/17 01:10:44;;;;;;;;;;;;;;;11.86;68.66;99550.16;107589;1254;108252;-62
2024/04/17 01:13:12;;;;;;;;;;;;;;;11.83;69.20;99551.92;107554;1256;97821;-62
2024/04/17 01:15:40;;;;;;;;;;;;;;;11.87;68.71;99555.05;107616;1253;97870;-63
2024/04/17 01:18:08;;;;;;;;;;;;;;;11.98;68.29;99556.84;107586;1252;112131;-63
2024/04/17 01:20:36;;;;;;;;;;;;;;;12.11;68.36;99564.34;107607;1253;108536;-63
2024/04/17 01:23:03;;;;;;;;;;;;;;;12.09;68.81;99572.80;107613;1252;107190;-64
2024/04/17 01:25:31;;;;;;;;;;;;;;;12.03;68.83;99577.95;107628;1255;97847;-62
2024/04/17 01:27:59;;;;;;;;;;;;;;;12.03;68.82;99575.05;107532;1252;97917;-62
2024/04/17 01:30:27;;;;;;;;;;;;;;;12.04;69.04;99576.40;107629;1253;111499;-62
2024/04/17 01:32:55;;;;;;;;;;;;;;;11.98;69.82;99574.73;107664;1255;106966;-62
2024/04/17 01:35:23;;;;;;;;;;;;;;;11.91;69.97;99567.59;107571;1255;108272;-62
2024/04/17 01:37:50;;;;;;;;;;;;;;;11.92;70.83;99572.92;107523;1254;97957;-62
2024/04/17 01:40:18;;;;;;;;;;;;;;;11.86;70.67;99566.33;107575;1253;97840;-62
2024/04/17 01:42:46;;;;;;;;;;;;;;;11.88;71.16;99564.48;107581;1252;111208;-61
2024/04/17 01:45:14;;;;;;;;;;;;;;;11.92;71.43;99564.12;107581;1255;108389;-63
2024/04/17 01:47:41;;;;;;;;;;;;;;;11.96;70.88;99562.00;107557;1255;108324;-62
2024/04/17 01:50:10;;;;;;;;;;;;;;;12.10;71.21;99559.35;107601;1254;97930;-62
2024/04/17 01:52:37;;;;;;;;;;;;;;;12.20;71.57;99562.20;107579;1252;97835;-62
2024/04/17 01:55:06;;;;;;;;;;;;;;;12.20;71.63;99561.96;107541;1253;112201;-63
2024/04/17 01:57:34;;;;;;;;;;;;;;;12.14;71.59;99561.40;107584;1254;108380;-62
2024/04/17 02:00:01;;;;;;;;;;;;;;;12.08;72.02;99563.39;107597;1254;107338;-62
2024/04/17 02:02:35;;;;;;;;;;;;;;;11.97;72.86;99565.90;107554;1254;97823;-62
2024/04/17 02:05:03;;;;;;;;;;;;;;;11.86;73.12;99554.27;107584;1252;97833;-62
2024/04/17 02:07:32;;;;;;;;;;;;;;;11.80;73.62;99560.69;107614;1253;111371;-62
2024/04/17 02:10:00;;;;;;;;;;;;;;;11.78;74.03;99573.55;107600;1253;107672;-62
2024/04/17 02:12:28;;;;;;;;;;;;;;;11.68;74.71;99567.14;107627;1253;108672;-61
2024/04/17 02:14:56;;;;;;;;;;;;;;;11.68;74.55;99557.56;107596;1254;97927;-62
2024/04/17 02:17:24;;;;;;;;;;;;;;;11.70;75.03;99557.16;107570;1254;97825;-62
2024/04/17 02:19:52;;;;;;;;;;;;;;;11.67;75.21;99552.16;107627;1251;111277;-61
2024/04/17 02:22:20;;;;;;;;;;;;;;;11.62;75.40;99550.69;107589;1254;108279;-62
2024/04/17 02:24:48;;;;;;;;;;;;;;;11.61;76.20;99554.66;107559;1253;109275;-62
2024/04/17 02:27:16;;;;;;;;;;;;;;;11.52;76.81;99552.73;107399;1253;97850;-62
2024/04/17 02:29:43;;;;;;;;;;;;;;;11.46;77.56;99551.11;107452;1253;97739;-62
2024/04/17 02:32:11;;;;;;;;;;;;;;;11.33;78.10;99546.42;107461;1258;111813;-61
2024/04/17 02:34:39;;;;;;;;;;;;;;;11.23;79.12;99554.52;107444;1253;108323;-62
2024/04/17 02:37:07;;;;;;;;;;;;;;;11.15;79.12;99562.05;107426;1253;107686;-62
2024/04/17 02:39:35;;;;;;;;;;;;;;;11.06;79.72;99549.17;107505;1253;98376;-62
2024/04/17 02:42:03;;;;;;;;;;;;;;;11.10;79.35;99551.48;107466;1253;97967;-62
2024/04/17 02:44:31;;;;;;;;;;;;;;;11.17;80.13;99555.31;107493;1253;111903;-62
2024/04/17 02:47:00;;;;;;;;;;;;;;;11.13;80.10;99561.02;107539;1255;107917;-62
2024/04/17 02:49:29;;;;;;;;;;;;;;;11.07;80.74;99563.11;107496;1252;107111;-62
2024/04/17 02:51:56;;;;;;;;;;;;;;;10.98;81.19;99556.58;107526;1254;97796;-61
2024/04/17 02:54:24;;;;;;;;;;;;;;;10.90;81.87;99555.40;107529;1254;98338;-62
2024/04/17 02:56:52;;;;;;;;;;;;;;;10.92;81.61;99550.36;107550;1256;112184;-62
2024/04/17 02:59:19;;;;;;;;;;;;;;;11.01;81.73;99549.95;107587;1254;107569;-63
2024/04/17 03:01:47;;;;;;;;;;;;;;;11.11;80.91;99545.77;107602;1254;107756;-62
2024/04/17 03:04:15;;;;;;;;;;;;;;;11.21;80.68;99535.67;107617;1254;98008;-62
2024/04/17 03:06:43;;;;;;;;;;;;;;;11.28;80.27;99527.08;107588;1254;97827;-62
2024/04/17 03:09:10;;;;;;;;;;;;;;;11.36;80.93;99515.71;107602;1254;111074;-62
2024/04/17 03:11:40;;;;;;;;;;;;;;;11.42;80.65;99513.61;107614;1253;108278;-62
2024/04/17 03:14:08;;;;;;;;;;;;;;;11.49;80.32;99507.63;107529;1252;108137;-63
2024/04/17 03:16:36;;;;;;;;;;;;;;;11.54;79.80;99501.45;107521;1254;97813;-62
2024/04/17 03:19:04;;;;;;;;;;;;;;;11.60;79.45;99498.38;107619;1253;97710;-62
2024/04/17 03:21:32;;;;;;;;;;;;;;;11.65;79.22;99496.70;107589;1254;111820;-62
2024/04/17 03:24:00;;;;;;;;;;;;;;;11.68;79.16;99499.38;107628;1254;108013;-62
2024/04/17 03:26:29;;;;;;;;;;;;;;;11.69;78.86;99503.42;107573;1254;107021;-61
2024/04/17 03:28:57;;;;;;;;;;;;;;;11.71;78.64;99505.33;107556;1253;97950;-61
2024/04/17 03:31:25;;;;;;;;;;;;;;;11.72;78.32;99504.85;107577;1254;98375;-61
2024/04/17 03:33:53;;;;;;;;;;;;;;;11.73;78.20;99505.29;107593;1254;111309;-62
2024/04/17 03:36:21;;;;;;;;;;;;;;;11.76;78.21;99507.67;107591;1254;107770;-61
2024/04/17 03:38:49;;;;;;;;;;;;;;;11.78;78.15;99511.09;107588;1254;107643;-61
2024/04/17 03:41:17;;;;;;;;;;;;;;;11.78;78.75;99509.10;107610;1254;97820;-62
2024/04/17 03:43:45;;;;;;;;;;;;;;;11.71;79.24;99515.70;107554;1253;97829;-62
2024/04/17 03:46:13;;;;;;;;;;;;;;;11.65;78.75;99513.04;107569;1254;111001;-62
2024/04/17 03:48:41;;;;;;;;;;;;;;;11.62;78.96;99513.65;107641;1254;108540;-62
2024/04/17 03:51:09;;;;;;;;;;;;;;;11.61;79.18;99515.34;107577;1255;108550;-63
2024/04/17 03:53:37;;;;;;;;;;;;;;;11.61;79.88;99512.64;107563;1254;97840;-62
2024/04/17 03:56:06;;;;;;;;;;;;;;;11.58;79.76;99517.88;107635;1253;97841;-63
2024/04/17 03:58:34;;;;;;;;;;;;;;;11.54;79.93;99508.15;107641;1254;111488;-63
2024/04/17 04:01:02;;;;;;;;;;;;;;;11.46;80.11;99507.14;107638;1254;107439;-63
2024/04/17 04:03:30;;;;;;;;;;;;;;;11.39;80.63;99502.85;107538;1254;108346;-62
2024/04/17 04:05:59;;;;;;;;;;;;;;;11.30;80.41;99506.34;107553;1256;97825;-62
2024/04/17 04:08:27;;;;;;;;;;;;;;;11.25;81.15;99510.85;107578;1253;97707;-62
2024/04/17 04:10:55;;;;;;;;;;;;;;;11.19;81.29;99506.90;107617;1254;111753;-62
2024/04/17 04:13:23;;;;;;;;;;;;;;;11.10;80.68;99510.05;107575;1254;107335;-62
2024/04/17 04:15:51;;;;;;;;;;;;;;;11.04;81.17;99509.56;107567;1253;107724;-62
2024/04/17 04:18:20;;;;;;;;;;;;;;;10.99;81.32;99509.19;107569;1252;97826;-62
2024/04/17 04:20:48;;;;;;;;;;;;;;;10.95;81.28;99505.89;107628;1254;97864;-61
2024/04/17 04:23:16;;;;;;;;;;;;;;;10.91;81.67;99505.55;107580;1254;111792;-61
2024/04/17 04:25:45;;;;;;;;;;;;;;;10.79;81.20;99508.70;107628;1254;108329;-62
2024/04/17 04:28:13;;;;;;;;;;;;;;;10.77;81.70;99503.01;107509;1256;107778;-63
2024/04/17 04:30:41;;;;;;;;;;;;;;;10.71;81.68;99499.08;107501;1254;98510;-63
2024/04/17 04:33:09;;;;;;;;;;;;;;;10.62;81.59;99493.70;107532;1254;97974;-62
2024/04/17 04:35:37;;;;;;;;;;;;;;;10.56;82.18;99495.66;107526;1254;111151;-62
2024/04/17 04:38:05;;;;;;;;;;;;;;;10.46;81.62;99500.63;107553;1254;108358;-62
2024/04/17 04:40:33;;;;;;;;;;;;;;;10.45;82.08;99502.34;107531;1254;108256;-61
2024/04/17 04:43:02;;;;;;;;;;;;;;;10.41;82.18;99503.33;107611;1252;97816;-63
2024/04/17 04:45:30;;;;;;;;;;;;;;;10.39;82.47;99505.90;107579;1251;97912;-63
2024/04/17 04:47:58;;;;;;;;;;;;;;;10.36;82.66;99507.10;107625;1255;111744;-62
2024/04/17 04:50:26;;;;;;;;;;;;;;;10.30;82.79;99509.47;107659;1254;107362;-63
2024/04/17 04:52:54;;;;;;;;;;;;;;;10.27;82.79;99513.77;107618;1252;107802;-62
2024/04/17 04:55:22;;;;;;;;;;;;;;;10.28;83.23;99517.44;107594;1254;97898;-62
2024/04/17 04:57:50;;;;;;;;;;;;;;;10.21;82.83;99521.72;107570;1253;97759;-62
2024/04/17 05:00:18;;;;;;;;;;;;;;;10.16;82.95;99528.23;107569;1253;110311;-62
2024/04/17 05:02:46;;;;;;;;;;;;;;;10.13;83.13;99539.79;107596;1253;108155;-62
2024/04/17 05:05:14;;;;;;;;;;;;;;;10.13;82.89;99547.36;107558;1253;107744;-62
2024/04/17 05:07:42;;;;;;;;;;;;;;;10.08;82.48;99547.52;107594;1255;97828;-62
2024/04/17 05:10:10;;;;;;;;;;;;;;;10.05;82.17;99545.32;107602;1254;97846;-61
2024/04/17 05:12:38;;;;;;;;;;;;;;;10.01;81.56;99554.35;107564;1254;110876;-62
2024/04/17 05:15:06;;;;;;;;;;;;;;;9.96;81.08;99552.34;107606;1254;108332;-63
2024/04/17 05:17:34;;;;;;;;;;;;;;;9.97;81.33;99557.80;107612;1253;108219;-62
2024/04/17 05:20:02;;;;;;;;;;;;;;;10.00;81.07;99562.27;107535;1254;97869;-63
2024/04/17 05:22:31;;;;;;;;;;;;;;;10.02;80.97;99560.96;107530;1252;97717;-63
2024/04/17 05:24:59;;;;;;;;;;;;;;;10.03;80.82;99569.64;107590;1254;112158;-63
2024/04/17 05:27:27;;;;;;;;;;;;;;;10.03;80.70;99572.73;107563;1252;107268;-63
2024/04/17 05:29:56;;;;;;;;;;;;;;;9.97;79.91;99588.73;107542;1254;108326;-63
2024/04/17 05:32:23;;;;;;;;;;;;;;;9.92;79.73;99590.61;107516;1254;97942;-62
2024/04/17 05:34:52;;;;;;;;;;;;;;;9.93;79.75;99586.52;107555;1254;97835;-62
2024/04/17 05:37:20;;;;;;;;;;;;;;;9.93;79.45;99590.42;107526;1256;111364;-62
2024/04/17 05:39:48;;;;;;;;;;;;;;;9.85;78.58;99599.70;107577;1254;108003;-62
2024/04/17 05:42:16;;;;;;;;;;;;;;;9.65;78.44;99591.91;107574;1254;107158;-63
2024/04/17 05:44:44;;;;;;;;;;;;;;;9.62;78.78;99587.75;107565;1254;97934;-62
2024/04/17 05:47:13;;;;;;;;;;;;;;;9.59;78.82;99597.67;107607;1253;97906;-63
2024/04/17 05:49:41;;;;;;;;;;;;;;;9.57;78.98;99601.65;107567;1254;111926;-62
2024/04/17 05:52:10;;;;;;;;;;;;;;;9.63;79.08;99602.15;107592;1256;108556;-63
2024/04/17 05:54:38;;;;;;;;;;;;;;;9.64;78.65;99607.20;107583;1254;107459;-62
2024/04/17 05:57:06;;;;;;;;;;;;;;;9.72;78.83;99610.19;107580;1254;97726;-62
2024/04/17 05:59:35;;;;;;;;;;;;;;;9.80;78.50;99615.96;107649;1253;97918;-62
2024/04/17 06:02:03;;;;;;;;;;;;;;;9.86;78.47;99621.58;107558;1256;110986;-62
2024/04/17 06:04:31;;;;;;;;;;;;;;;9.92;78.00;99619.26;107677;1254;108373;-63
2024/04/17 06:06:59;;;;;;;;;;;;;;;9.85;77.40;99614.69;107601;1253;107854;-64
2024/04/17 06:09:27;;;;;;;;;;;;;;;9.82;77.56;99622.54;107525;1254;97915;-63
2024/04/17 06:11:56;;;;;;;;;;;;;;;9.79;76.96;99624.15;106775;1254;1144851;-63
2024/04/17 06:14:23;;;;;;;;;;;;;;;9.78;77.23;99622.06;107608;1254;110854;-63
2024/04/17 06:16:51;;;;;;;;;;;;;;;9.79;77.47;99624.64;107538;1254;107505;-63
2024/04/17 06:19:19;;;;;;;;;;;;;;;9.77;77.32;99633.25;107590;1253;107935;-63
2024/04/17 06:21:48;;;;;;;;;;;;;;;9.82;77.52;99634.92;107594;1254;97861;-63
2024/04/17 06:24:16;;;;;;;;;;;;;;;9.89;77.73;99627.77;107570;1254;97726;-63
2024/04/17 06:26:44;;;;;;;;;;;;;;;9.94;77.45;99621.82;107568;1254;112894;-62
2024/04/17 06:29:12;;;;;;;;;;;;;;;10.01;77.54;99624.31;107571;1253;108700;-63
2024/04/17 06:31:40;;;;;;;;;;;;;;;10.09;77.43;99632.46;107569;1254;108053;-63
2024/04/17 06:34:08;;;;;;;;;;;;;;;10.08;77.34;99636.90;107537;1254;97908;-61
2024/04/17 06:36:39;;;;;;;;;;;;;;;10.04;77.17;99645.91;107533;1254;98711;-62
2024/04/17 06:39:07;;;;;;;;;;;;;;;10.02;77.15;99649.67;107550;1254;110771;-63
2024/04/17 06:41:35;;;;;;;;;;;;;;;10.12;77.65;99642.41;107542;1254;107171;-61
2024/04/17 06:44:18;;;;;;;;;;;;;;;10.20;77.60;99643.20;107583;1254;107660;-63
2024/04/17 06:46:47;;;;;;;;;;;;;;;10.23;77.37;99648.90;107601;1254;97852;-63
2024/04/17 06:49:15;;;;;;;;;;;;;;;10.24;77.37;99651.95;107593;1254;97809;-62
2024/04/17 06:51:42;;;;;;;;;;;;;;;10.24;77.48;99652.79;107647;1254;111273;-63
2024/04/17 06:54:10;;;;;;;;;;;;;;;10.19;77.15;99660.45;107584;1254;107422;-63
2024/04/17 06:56:38;;;;;;;;;;;;;;;10.12;76.90;99666.55;107495;1254;108228;-63
2024/04/17 06:59:06;;;;;;;;;;;;;;;10.09;76.99;99668.52;107538;1253;97923;-62
2024/04/17 07:01:34;;;;;;;;;;;;;;;10.07;77.37;99676.44;107576;1254;97717;-63
2024/04/17 07:04:04;;;;;;;;;;;;;;;10.12;77.56;99676.08;107591;1254;111983;-62
2024/04/17 07:06:32;;;;;;;;;;;;;;;10.16;77.54;99679.56;107611;1254;107734;-62
2024/04/17 07:09:04;;;;;;;;;;;;;;;10.19;77.40;99677.66;107605;1254;108621;-63
2024/04/17 07:11:32;;;;;;;;;;;;;;;10.25;77.55;99677.75;107539;1254;97828;-63
2024/04/17 07:14:00;;;;;;;;;;;;;;;10.29;77.44;99676.10;107631;1255;97847;-63
2024/04/17 07:16:29;;;;;;;;;;;;;;;10.28;77.14;99671.13;107584;1253;111518;-63
2024/04/17 07:18:56;;;;;;;;;;;;;;;10.19;76.98;99661.14;107624;1254;107219;-65
2024/04/17 07:21:25;;;;;;;;;;;;;;;10.19;77.31;99657.03;107593;1254;108383;-63
2024/04/17 07:23:52;;;;;;;;;;;;;;;10.28;77.81;99658.11;107594;1254;98506;-63
2024/04/17 07:26:20;;;;;;;;;;;;;;;10.29;77.46;99656.52;107604;1256;97716;-63
2024/04/17 07:28:49;;;;;;;;;;;;;;;10.30;77.41;99661.83;107616;1254;112069;-63
2024/04/17 07:31:17;;;;;;;;;;;;;;;10.38;77.62;99674.78;107653;1254;108523;-62
2024/04/17 07:33:47;;;;;;;;;;;;;;;10.40;77.35;99682.48;107601;1254;108241;-62
2024/04/17 07:36:15;;;;;;;;;;;;;;;10.13;76.98;99684.45;107624;1254;97844;-63
2024/04/17 07:38:47;;;;;;;;;;;;;;;10.02;77.38;99684.95;107593;1254;97729;-63
2024/04/17 07:41:15;;;;;;;;;;;;;;;10.07;77.89;99690.56;107570;1254;111795;-62
2024/04/17 07:43:47;;;;;;;;;;;;;;;10.07;78.23;99702.76;107625;1254;107876;-63
2024/04/17 07:46:15;;;;;;;;;;;;;;;9.95;78.29;99709.31;107563;1254;109320;-62
2024/04/17 07:48:43;;;;;;;;;;;;;;;9.86;78.70;99707.36;107613;1255;98045;-62
2024/04/17 07:51:11;;;;;;;;;;;;;;;9.76;78.62;99701.96;107601;1254;97819;-62
2024/04/17 07:53:39;;;;;;;;;;;;;;;9.83;79.01;99703.06;107618;1254;111041;-62
2024/04/17 07:56:07;;;;;;;;;;;;;;;9.92;78.58;99704.85;107576;1253;107857;-63
2024/04/17 07:58:35;;;;;;;;;;;;;;;9.96;78.27;99701.52;107617;1254;108646;-63
2024/04/17 08:01:03;;;;;;;;;;;;;;;10.02;78.15;99690.48;107608;1256;97889;-62
2024/04/17 08:03:31;;;;;;;;;;;;;;;10.19;78.53;99688.63;107556;1254;97883;-63
2024/04/17 08:05:59;;;;;;;;;;;;;;;10.28;77.96;99690.48;107560;1254;111403;-62
2024/04/17 08:08:27;;;;;;;;;;;;;;;10.28;77.88;99701.48;107575;1256;108853;-62
2024/04/17 08:10:55;;;;;;;;;;;;;;;10.18;77.30;99707.12;107606;1254;107115;-62
2024/04/17 08:13:23;;;;;;;;;;;;;;;10.18;77.37;99700.67;107596;1256;97927;-65
2024/04/17 08:15:55;;;;;;;;;;;;;;;10.31;77.63;99706.67;107625;1254;97938;-64
2024/04/17 08:18:23;;;;;;;;;;;;;;;10.39;77.70;99697.30;107645;1253;111106;-63
2024/04/17 08:20:54;;;;;;;;;;;;;;;10.50;77.72;99697.02;107642;1254;107673;-62
2024/04/17 08:23:23;;;;;;;;;;;;;;;10.58;77.14;99697.09;107591;1254;108218;-62
2024/04/17 08:25:51;;;;;;;;;;;;;;;10.62;77.03;99696.96;107638;1255;97922;-61
2024/04/17 08:28:19;;;;;;;;;;;;;;;10.62;76.34;99699.52;107601;1256;97828;-63
2024/04/17 08:30:48;;;;;;;;;;;;;;;10.67;76.49;99696.52;107601;1251;111816;-63
2024/04/17 08:33:16;;;;;;;;;;;;;;;10.71;76.31;99696.66;107604;1254;107833;-63
2024/04/17 08:35:44;;;;;;;;;;;;;;;10.84;76.57;99689.52;107546;1256;107021;-62
2024/04/17 08:38:12;;;;;;;;;;;;;;;10.98;76.51;99681.73;107482;1259;97951;-63
2024/04/17 08:40:40;;;;;;;;;;;;;;;10.97;75.70;99681.64;107551;1257;97842;-62
2024/04/17 08:43:11;;;;;;;;;;;;;;;10.96;76.01;99686.58;107593;1254;111877;-63
2024/04/17 08:45:39;;;;;;;;;;;;;;;11.03;75.57;99698.41;107586;1254;108372;-63
2024/04/17 08:48:17;;;;;;;;;;;;;;;11.04;74.99;99692.95;107438;1257;107933;-62
2024/04/17 08:50:46;;;;;;;;;;;;;;;11.07;74.95;99687.91;107442;1258;97813;-63
2024/04/17 08:53:16;;;;;;;;;;;;;;;11.13;74.57;99684.64;107435;1254;97737;-62
2024/04/17 08:55:45;;;;;;;;;;;;;;;10.99;73.64;99694.04;107475;1258;111899;-65
2024/04/17 08:58:13;;;;;;;;;;;;;;;10.81;73.58;99699.73;107504;1255;107792;-62
2024/04/17 09:00:41;;;;;;;;;;;;;;;10.71;74.27;99709.39;107483;1253;108995;-62
2024/04/17 09:03:10;;;;;;;;;;;;;;;10.76;75.04;99705.30;107613;1255;97816;-63
2024/04/17 09:05:38;;;;;;;;;;;;;;;10.65;74.75;99703.70;107588;1255;97686;-63
2024/04/17 09:08:07;;;;;;;;;;;;;;;10.51;75.47;99725.05;107584;1254;111301;-63
2024/04/17 09:10:35;;;;;;;;;;;;;;;10.15;75.76;99740.60;107613;1253;108796;-62
2024/04/17 09:13:04;;;;;;;;;;;;;;;9.92;76.42;99729.13;107569;1253;108153;-62
2024/04/17 09:15:32;;;;;;;;;;;;;;;9.82;77.36;99719.27;107535;1254;97834;-63
2024/04/17 09:18:00;;;;;;;;;;;;;;;9.78;77.71;99724.64;107619;1255;97828;-63
2024/04/17 09:20:28;;;;;;;;;;;;;;;9.77;77.75;99713.92;107579;1256;110849;-62
2024/04/17 09:22:56;;;;;;;;;;;;;;;9.83;78.02;99702.63;107611;1256;107754;-62
2024/04/17 09:25:24;;;;;;;;;;;;;;;9.82;78.09;99708.14;107573;1254;108238;-63
2024/04/17 09:27:52;;;;;;;;;;;;;;;9.74;78.10;99714.17;107528;1254;97842;-63
2024/04/17 09:30:21;;;;;;;;;;;;;;;9.63;78.21;99698.23;107513;1257;99337;-63
2024/04/17 09:32:48;;;;;;;;;;;;;;;9.70;78.30;99689.52;107610;1254;110900;-64
2024/04/17 09:35:17;;;;;;;;;;;;;;;9.78;78.24;99695.80;107586;1255;107310;-63
2024/04/17 09:37:45;;;;;;;;;;;;;;;9.71;78.34;99698.71;107622;1254;107850;-63
2024/04/17 09:40:13;;;;;;;;;;;;;;;9.69;78.75;99695.64;107499;1254;97881;-63
2024/04/17 09:42:42;;;;;;;;;;;;;;;9.66;78.75;99695.08;107628;1254;97727;-62
2024/04/17 09:45:14;;;;;;;;;;;;;;;9.75;79.45;99695.21;107590;1256;111794;-63
2024/04/17 09:47:43;;;;;;;;;;;;;;;9.83;79.19;99703.59;107675;1254;108684;-62
2024/04/17 09:50:14;;;;;;;;;;;;;;;9.87;79.37;99710.48;107555;1256;107635;-63
2024/04/17 09:52:47;;;;;;;;;;;;;;;9.87;78.68;99706.33;107524;1254;98421;-64
2024/04/17 09:55:16;;;;;;;;;;;;;;;9.98;79.05;99692.73;107602;1254;97846;-63
2024/04/17 09:57:47;;;;;;;;;;;;;;;10.15;79.14;99683.83;107624;1254;112017;-63
2024/04/17 10:00:16;;;;;;;;;;;;;;;10.32;79.02;99686.16;107609;1256;107825;-62
2024/04/17 10:02:44;;;;;;;;;;;;;;;10.41;78.44;99692.30;107646;1254;107852;-63
2024/04/17 10:05:12;;;;;;;;;;;;;;;10.37;77.93;99702.17;107590;1254;97912;-63
2024/04/17 10:07:41;;;;;;;;;;;;;;;10.18;77.25;99707.56;107565;1254;97739;-63
2024/04/17 10:10:12;;;;;;;;;;;;;;;10.10;78.08;99702.10;107576;1257;112217;-63
2024/04/17 10:12:44;;;;;;;;;;;;;;;10.12;78.23;99694.90;107610;1254;108397;-63
2024/04/17 10:15:13;;;;;;;;;;;;;;;10.22;78.20;99687.95;107599;1252;107225;-64
2024/04/17 10:17:41;;;;;;;;;;;;;;;10.37;78.21;99686.77;107613;1253;97810;-63
2024/04/17 10:20:28;;;;;;;;;;;;;;;10.42;77.57;99694.63;107660;1254;98001;-63
2024/04/17 10:23:01;;;;;;;;;;;;;;;10.22;76.53;99704.63;107579;1254;111445;-63
2024/04/17 10:25:30;;;;;;;;;;;;;;;10.07;77.09;99709.01;107675;1254;107069;-63
2024/04/17 10:28:11;;;;;;;;;;;;;;;10.05;76.99;99718.56;107601;1254;108399;-63
2024/04/17 10:30:44;;;;;;;;;;;;;;;9.93;76.98;99719.97;107642;1254;97825;-63
2024/04/17 10:33:17;;;;;;;;;;;;;;;9.72;77.77;99717.89;107594;1251;97829;-63
2024/04/17 10:35:46;;;;;;;;;;;;;;;9.55;78.49;99703.92;107646;1254;112337;-64
2024/04/17 10:38:15;;;;;;;;;;;;;;;9.63;78.58;99688.92;107628;1254;108416;-62
2024/04/17 10:41:00;;;;;;;;;;;;;;;9.72;78.64;99697.48;107621;1256;107268;-62
2024/04/17 10:43:29;;;;;;;;;;;;;;;9.71;78.60;99701.56;107623;1254;97853;-62
2024/04/17 10:46:09;;;;;;;;;;;;;;;9.77;79.22;99709.62;107632;1254;97999;-63
2024/04/17 10:48:47;;;;;;;;;;;;;;;9.70;78.94;99698.64;107608;1254;111341;-61
2024/04/17 10:51:16;;;;;;;;;;;;;;;9.79;79.30;99703.23;107534;1254;108065;-64
2024/04/17 10:53:48;;;;;;;;;;;;;;;9.93;79.19;99700.23;107572;1257;107700;-62
2024/04/17 10:56:16;;;;;;;;;;;;;;;9.96;78.36;99692.56;107581;1252;97866;-64
2024/04/17 10:58:44;;;;;;;;;;;;;;;10.08;78.56;99695.24;107647;1255;97864;-64
2024/04/17 11:01:13;;;;;;;;;;;;;;;10.10;77.86;99700.43;107628;1255;110852;-64
2024/04/17 11:03:41;;;;;;;;;;;;;;;10.01;77.72;99700.61;107613;1256;107437;-64
2024/04/17 11:06:10;;;;;;;;;;;;;;;9.99;77.87;99696.17;107614;1254;107597;-62
2024/04/17 11:08:40;;;;;;;;;;;;;;;10.09;78.06;99692.52;107624;1254;97908;-63
2024/04/17 11:11:21;;;;;;;;;;;;;;;10.18;77.94;99693.32;107626;1254;98486;-63
2024/04/17 11:13:50;;;;;;;;;;;;;;;10.27;77.70;99693.13;107641;1254;111215;-63
2024/04/17 11:16:19;;;;;;;;;;;;;;;10.27;77.56;99688.64;107624;1254;107859;-62
2024/04/17 11:18:47;;;;;;;;;;;;;;;10.30;77.62;99695.83;107589;1254;108771;-63
2024/04/17 11:21:15;;;;;;;;;;;;;;;10.36;77.58;99695.42;107515;1255;99152;-64
2024/04/17 11:23:44;;;;;;;;;;;;;;;10.43;77.87;99698.66;107527;1254;99167;-63
2024/04/17 11:26:13;;;;;;;;;;;;;;;10.47;77.65;99700.91;107560;1254;113675;-63
2024/04/17 11:28:41;;;;;;;;;;;;;;;10.53;77.61;99700.48;107574;1254;107996;-63
2024/04/17 11:31:11;;;;;;;;;;;;;;;10.53;77.38;99703.05;107531;1254;107700;-61
2024/04/17 11:33:39;;;;;;;;;;;;;;;10.23;77.09;99704.30;107525;1253;99189;-62
2024/04/17 11:36:09;;;;;;;;;;;;;;;9.94;77.98;99703.73;107574;1254;99879;-64
2024/04/17 11:38:37;;;;;;;;;;;;;;;9.84;78.95;99708.66;107564;1254;113607;-64
2024/04/17 11:41:06;;;;;;;;;;;;;;;9.72;79.50;99714.02;107539;1254;108692;-63
2024/04/17 11:43:34;;;;;;;;;;;;;;;9.67;79.53;99713.26;107528;1254;107912;-63
2024/04/17 11:46:04;;;;;;;;;;;;;;;9.72;79.97;99714.13;107555;1254;99223;-63
2024/04/17 11:48:32;;;;;;;;;;;;;;;9.71;80.40;99717.34;107629;1254;99080;-64
2024/04/17 11:51:00;;;;;;;;;;;;;;;9.67;80.09;99715.80;107618;1256;113206;-63
2024/04/17 11:53:28;;;;;;;;;;;;;;;9.75;80.68;99713.11;107606;1251;107827;-62
2024/04/17 11:55:56;;;;;;;;;;;;;;;9.77;81.24;99714.96;107601;1254;107985;-61
2024/04/17 11:58:24;;;;;;;;;;;;;;;9.65;80.83;99711.45;107598;1253;99211;-65
2024/04/17 12:00:53;;;;;;;;;;;;;;;9.66;81.09;99707.13;107583;1254;99073;-62
2024/04/17 12:03:21;;;;;;;;;;;;;;;9.76;81.22;99705.38;107618;1254;114345;-62
2024/04/17 12:05:49;;;;;;;;;;;;;;;9.85;81.34;99703.34;107635;1254;107817;-63
2024/04/17 12:08:20;;;;;;;;;;;;;;;9.94;81.31;99697.81;107592;1254;107467;-63
2024/04/17 12:10:48;;;;;;;;;;;;;;;9.96;80.86;99691.14;107648;1254;99182;-62
2024/04/17 12:13:16;;;;;;;;;;;;;;;9.98;81.11;99694.13;107558;1254;99873;-63
2024/04/17 12:15:44;;;;;;;;;;;;;;;10.02;80.92;99698.47;107613;1253;112205;-62
2024/04/17 12:18:13;;;;;;;;;;;;;;;10.06;80.81;99701.98;107599;1254;108389;-63
2024/04/17 12:20:41;;;;;;;;;;;;;;;10.09;80.81;99703.44;107599;1254;108180;-61
2024/04/17 12:23:10;;;;;;;;;;;;;;;10.13;80.59;99705.48;107602;1253;99234;-62
2024/04/17 12:28:24;;;;;;;;;;;;;;;10.27;80.90;99702.84;107654;1253;112698;-63
2024/04/17 12:30:52;;;;;;;;;;;;;;;10.30;80.57;99703.61;107622;1254;108562;-62
2024/04/17 12:33:21;;;;;;;;;;;;;;;10.31;80.75;99701.08;107675;1255;108171;-62
2024/04/17 12:35:49;;;;;;;;;;;;;;;10.34;81.33;99699.55;107565;1254;99644;-63
2024/04/17 12:38:17;;;;;;;;;;;;;;;10.34;81.05;99699.95;107623;1253;99300;-63
2024/04/17 12:40:45;;;;;;;;;;;;;;;10.37;81.06;99700.17;107566;1254;113673;-63
2024/04/17 12:43:14;;;;;;;;;;;;;;;10.45;81.21;99701.15;107587;1253;107406;-63